sensor_id;sensor_type;location;lat;lon;timestamp;temperature;humidity
17437;DHT22;70275;52.198;5.422;2023-07-08T00:00:32;20.90;56.20
17437;DHT22;70275;52.198;5.422;2023-07-08T00:03:01;21.10;57.10
17437;DHT22;70275;52.198;5.422;2023-07-08T00:05:30;21.00;56.30
17437;DHT22;70275;52.198;5.422;2023-07-08T00:08:00;20.90;57.60
17437;DHT22;70275;52.198;5.422;2023-07-08T00:10:31;20.90;56.00
17437;DHT22;70275;52.198;5.422;2023-07-08T00:13:00;20.80;57.10
17437;DHT22;70275;52.198;5.422;2023-07-08T00:15:31;20.80;57.60
17437;DHT22;70275;52.198;5.422;2023-07-08T00:18:03;20.80;58.30
17437;DHT22;70275;52.198;5.422;2023-07-08T00:20:40;20.70;57.80
17437;DHT22;70275;52.198;5.422;2023-07-08T00:23:12;20.70;57.70
17437;DHT22;70275;52.198;5.422;2023-07-08T00:25:44;20.60;57.80
17437;DHT22;70275;52.198;5.422;2023-07-08T00:28:15;20.50;57.50
17437;DHT22;70275;52.198;5.422;2023-07-08T00:30:46;20.50;59.10
17437;DHT22;70275;52.198;5.422;2023-07-08T00:33:15;20.50;57.60
17437;DHT22;70275;52.198;5.422;2023-07-08T00:35:45;20.40;58.40
17437;DHT22;70275;52.198;5.422;2023-07-08T00:38:17;20.50;58.40
17437;DHT22;70275;52.198;5.422;2023-07-08T00:40:59;20.40;58.60
17437;DHT22;70275;52.198;5.422;2023-07-08T00:43:38;20.30;58.60
17437;DHT22;70275;52.198;5.422;2023-07-08T00:46:18;20.20;59.10
17437;DHT22;70275;52.198;5.422;2023-07-08T00:49:03;20.30;59.50
17437;DHT22;70275;52.198;5.422;2023-07-08T00:51:42;20.20;60.30
17437;DHT22;70275;52.198;5.422;2023-07-08T00:54:12;20.20;59.70
17437;DHT22;70275;52.198;5.422;2023-07-08T00:56:47;20.10;60.20
17437;DHT22;70275;52.198;5.422;2023-07-08T00:59:22;20.10;60.40
17437;DHT22;70275;52.198;5.422;2023-07-08T01:01:58;20.10;61.30
17437;DHT22;70275;52.198;5.422;2023-07-08T01:04:34;20.00;61.50
17437;DHT22;70275;52.198;5.422;2023-07-08T01:07:09;20.00;61.90
17437;DHT22;70275;52.198;5.422;2023-07-08T01:09:42;19.90;61.60
17437;DHT22;70275;52.198;5.422;2023-07-08T01:12:20;19.90;62.30
17437;DHT22;70275;52.198;5.422;2023-07-08T01:14:54;19.80;61.70
17437;DHT22;70275;52.198;5.422;2023-07-08T01:17:26;19.70;63.00
17437;DHT22;70275;52.198;5.422;2023-07-08T01:19:58;19.70;62.10
17437;DHT22;70275;52.198;5.422;2023-07-08T01:22:34;19.60;62.60
17437;DHT22;70275;52.198;5.422;2023-07-08T01:25:05;19.60;62.50
17437;DHT22;70275;52.198;5.422;2023-07-08T01:27:38;19.60;64.00
17437;DHT22;70275;52.198;5.422;2023-07-08T01:30:10;19.60;63.20
17437;DHT22;70275;52.198;5.422;2023-07-08T01:32:44;19.60;63.00
17437;DHT22;70275;52.198;5.422;2023-07-08T01:35:17;19.50;62.90
17437;DHT22;70275;52.198;5.422;2023-07-08T01:37:51;19.40;63.60
17437;DHT22;70275;52.198;5.422;2023-07-08T01:40:28;19.50;63.80
17437;DHT22;70275;52.198;5.422;2023-07-08T01:42:58;19.50;63.90
17437;DHT22;70275;52.198;5.422;2023-07-08T01:45:31;19.50;64.50
17437;DHT22;70275;52.198;5.422;2023-07-08T01:48:05;19.40;64.20
17437;DHT22;70275;52.198;5.422;2023-07-08T01:50:40;19.40;64.00
17437;DHT22;70275;52.198;5.422;2023-07-08T01:53:20;19.40;64.40
17437;DHT22;70275;52.198;5.422;2023-07-08T01:55:51;19.30;65.10
17437;DHT22;70275;52.198;5.422;2023-07-08T01:58:20;19.30;64.00
17437;DHT22;70275;52.198;5.422;2023-07-08T02:00:49;19.20;64.40
17437;DHT22;70275;52.198;5.422;2023-07-08T02:03:19;19.20;65.10
17437;DHT22;70275;52.198;5.422;2023-07-08T02:05:48;19.20;65.20
17437;DHT22;70275;52.198;5.422;2023-07-08T02:08:20;19.10;65.70
17437;DHT22;70275;52.198;5.422;2023-07-08T02:10:52;19.10;65.50
17437;DHT22;70275;52.198;5.422;2023-07-08T02:13:24;19.10;65.20
17437;DHT22;70275;52.198;5.422;2023-07-08T02:15:53;19.00;65.20
17437;DHT22;70275;52.198;5.422;2023-07-08T02:18:22;19.00;65.40
17437;DHT22;70275;52.198;5.422;2023-07-08T02:20:52;19.00;65.50
17437;DHT22;70275;52.198;5.422;2023-07-08T02:23:24;19.00;67.60
17437;DHT22;70275;52.198;5.422;2023-07-08T02:25:55;19.00;66.90
17437;DHT22;70275;52.198;5.422;2023-07-08T02:28:24;19.00;66.30
17437;DHT22;70275;52.198;5.422;2023-07-08T02:30:53;19.00;66.40
17437;DHT22;70275;52.198;5.422;2023-07-08T02:33:22;18.90;67.20
17437;DHT22;70275;52.198;5.422;2023-07-08T02:35:53;18.90;66.40
17437;DHT22;70275;52.198;5.422;2023-07-08T02:38:24;18.90;67.60
17437;DHT22;70275;52.198;5.422;2023-07-08T02:40:53;18.80;68.20
17437;DHT22;70275;52.198;5.422;2023-07-08T02:43:22;18.80;68.40
17437;DHT22;70275;52.198;5.422;2023-07-08T02:45:52;18.70;67.40
17437;DHT22;70275;52.198;5.422;2023-07-08T02:48:21;18.70;69.20
17437;DHT22;70275;52.198;5.422;2023-07-08T02:50:50;18.70;68.40
17437;DHT22;70275;52.198;5.422;2023-07-08T02:53:19;18.60;68.40
17437;DHT22;70275;52.198;5.422;2023-07-08T02:55:50;18.70;69.00
17437;DHT22;70275;52.198;5.422;2023-07-08T02:58:19;18.60;67.50
17437;DHT22;70275;52.198;5.422;2023-07-08T03:00:51;18.50;68.80
17437;DHT22;70275;52.198;5.422;2023-07-08T03:03:21;18.50;69.20
17437;DHT22;70275;52.198;5.422;2023-07-08T03:05:54;18.50;69.00
17437;DHT22;70275;52.198;5.422;2023-07-08T03:08:24;18.50;69.50
17437;DHT22;70275;52.198;5.422;2023-07-08T03:11:00;18.40;70.00
17437;DHT22;70275;52.198;5.422;2023-07-08T03:13:32;18.40;70.30
17437;DHT22;70275;52.198;5.422;2023-07-08T03:16:03;18.40;69.90
17437;DHT22;70275;52.198;5.422;2023-07-08T03:18:38;18.30;69.90
17437;DHT22;70275;52.198;5.422;2023-07-08T03:21:13;18.30;69.70
17437;DHT22;70275;52.198;5.422;2023-07-08T03:23:43;18.20;69.50
17437;DHT22;70275;52.198;5.422;2023-07-08T03:26:16;18.20;69.40
17437;DHT22;70275;52.198;5.422;2023-07-08T03:28:48;18.30;69.70
17437;DHT22;70275;52.198;5.422;2023-07-08T03:31:18;18.30;69.80
17437;DHT22;70275;52.198;5.422;2023-07-08T03:33:48;18.20;69.60
17437;DHT22;70275;52.198;5.422;2023-07-08T03:36:17;18.20;69.90
17437;DHT22;70275;52.198;5.422;2023-07-08T03:38:51;18.20;70.40
17437;DHT22;70275;52.198;5.422;2023-07-08T03:41:24;18.20;69.60
17437;DHT22;70275;52.198;5.422;2023-07-08T03:43:54;18.20;70.00
17437;DHT22;70275;52.198;5.422;2023-07-08T03:46:23;18.20;70.10
17437;DHT22;70275;52.198;5.422;2023-07-08T03:48:52;18.20;70.20
17437;DHT22;70275;52.198;5.422;2023-07-08T03:51:23;18.30;70.40
17437;DHT22;70275;52.198;5.422;2023-07-08T03:53:54;18.10;69.50
17437;DHT22;70275;52.198;5.422;2023-07-08T03:56:26;18.10;69.80
17437;DHT22;70275;52.198;5.422;2023-07-08T03:58:55;18.10;69.90
17437;DHT22;70275;52.198;5.422;2023-07-08T04:01:25;18.20;70.10
17437;DHT22;70275;52.198;5.422;2023-07-08T04:03:56;18.20;69.00
17437;DHT22;70275;52.198;5.422;2023-07-08T04:06:27;18.10;69.90
17437;DHT22;70275;52.198;5.422;2023-07-08T04:08:57;18.10;69.80
17437;DHT22;70275;52.198;5.422;2023-07-08T04:11:28;18.20;71.10
17437;DHT22;70275;52.198;5.422;2023-07-08T04:13:57;18.20;69.80
17437;DHT22;70275;52.198;5.422;2023-07-08T04:16:29;18.10;70.20
17437;DHT22;70275;52.198;5.422;2023-07-08T04:19:02;18.10;69.40
17437;DHT22;70275;52.198;5.422;2023-07-08T04:21:38;18.10;69.70
17437;DHT22;70275;52.198;5.422;2023-07-08T04:24:09;18.20;69.50
17437;DHT22;70275;52.198;5.422;2023-07-08T04:26:41;18.30;70.30
17437;DHT22;70275;52.198;5.422;2023-07-08T04:29:13;18.20;69.40
17437;DHT22;70275;52.198;5.422;2023-07-08T04:31:43;18.30;68.70
17437;DHT22;70275;52.198;5.422;2023-07-08T04:34:12;18.30;68.60
17437;DHT22;70275;52.198;5.422;2023-07-08T04:36:42;18.30;69.90
17437;DHT22;70275;52.198;5.422;2023-07-08T04:39:13;18.40;68.90
17437;DHT22;70275;52.198;5.422;2023-07-08T04:41:44;18.40;69.30
17437;DHT22;70275;52.198;5.422;2023-07-08T04:44:13;18.50;68.60
17437;DHT22;70275;52.198;5.422;2023-07-08T04:46:47;18.60;69.20
17437;DHT22;70275;52.198;5.422;2023-07-08T04:49:21;18.70;69.30
17437;DHT22;70275;52.198;5.422;2023-07-08T04:51:57;18.70;69.00
17437;DHT22;70275;52.198;5.422;2023-07-08T04:54:27;18.90;68.20
17437;DHT22;70275;52.198;5.422;2023-07-08T04:56:59;18.80;67.90
17437;DHT22;70275;52.198;5.422;2023-07-08T04:59:28;18.90;68.80
17437;DHT22;70275;52.198;5.422;2023-07-08T05:02:00;19.00;68.80
17437;DHT22;70275;52.198;5.422;2023-07-08T05:04:29;19.10;68.70
17437;DHT22;70275;52.198;5.422;2023-07-08T05:06:58;19.20;67.70
17437;DHT22;70275;52.198;5.422;2023-07-08T05:09:27;19.30;66.80
17437;DHT22;70275;52.198;5.422;2023-07-08T05:11:59;19.40;66.40
17437;DHT22;70275;52.198;5.422;2023-07-08T05:14:28;19.40;66.20
17437;DHT22;70275;52.198;5.422;2023-07-08T05:16:57;19.30;66.00
17437;DHT22;70275;52.198;5.422;2023-07-08T05:19:27;19.40;66.90
17437;DHT22;70275;52.198;5.422;2023-07-08T05:21:56;19.50;65.20
17437;DHT22;70275;52.198;5.422;2023-07-08T05:24:25;19.50;65.60
17437;DHT22;70275;52.198;5.422;2023-07-08T05:26:54;19.60;64.30
17437;DHT22;70275;52.198;5.422;2023-07-08T05:29:27;19.50;64.50
17437;DHT22;70275;52.198;5.422;2023-07-08T05:31:55;19.70;64.30
17437;DHT22;70275;52.198;5.422;2023-07-08T05:34:24;19.80;64.20
17437;DHT22;70275;52.198;5.422;2023-07-08T05:36:53;19.90;64.30
17437;DHT22;70275;52.198;5.422;2023-07-08T05:39:22;19.90;63.50
17437;DHT22;70275;52.198;5.422;2023-07-08T05:41:51;20.00;63.60
17437;DHT22;70275;52.198;5.422;2023-07-08T05:44:20;20.30;63.90
17437;DHT22;70275;52.198;5.422;2023-07-08T05:46:52;20.40;62.60
17437;DHT22;70275;52.198;5.422;2023-07-08T05:49:21;20.40;62.80
17437;DHT22;70275;52.198;5.422;2023-07-08T05:51:50;20.30;62.00
17437;DHT22;70275;52.198;5.422;2023-07-08T05:54:19;20.50;61.90
17437;DHT22;70275;52.198;5.422;2023-07-08T05:56:48;20.70;61.70
17437;DHT22;70275;52.198;5.422;2023-07-08T05:59:17;20.70;61.20
17437;DHT22;70275;52.198;5.422;2023-07-08T06:01:46;20.90;60.80
17437;DHT22;70275;52.198;5.422;2023-07-08T06:04:17;21.00;59.40
17437;DHT22;70275;52.198;5.422;2023-07-08T06:06:47;21.10;60.40
17437;DHT22;70275;52.198;5.422;2023-07-08T06:09:16;21.20;60.20
17437;DHT22;70275;52.198;5.422;2023-07-08T06:11:45;21.30;59.10
17437;DHT22;70275;52.198;5.422;2023-07-08T06:14:14;21.30;59.20
17437;DHT22;70275;52.198;5.422;2023-07-08T06:16:43;21.30;58.60
17437;DHT22;70275;52.198;5.422;2023-07-08T06:19:12;21.30;59.70
17437;DHT22;70275;52.198;5.422;2023-07-08T06:21:45;21.40;59.20
17437;DHT22;70275;52.198;5.422;2023-07-08T06:24:14;21.70;59.40
17437;DHT22;70275;52.198;5.422;2023-07-08T06:26:43;21.90;58.00
17437;DHT22;70275;52.198;5.422;2023-07-08T06:29:12;21.90;57.80
17437;DHT22;70275;52.198;5.422;2023-07-08T06:31:41;21.80;57.60
17437;DHT22;70275;52.198;5.422;2023-07-08T06:34:10;21.90;58.20
17437;DHT22;70275;52.198;5.422;2023-07-08T06:36:39;22.20;59.20
17437;DHT22;70275;52.198;5.422;2023-07-08T06:39:11;22.50;57.10
17437;DHT22;70275;52.198;5.422;2023-07-08T06:41:40;22.70;55.50
17437;DHT22;70275;52.198;5.422;2023-07-08T06:44:09;22.50;56.00
17437;DHT22;70275;52.198;5.422;2023-07-08T06:46:38;22.50;55.40
17437;DHT22;70275;52.198;5.422;2023-07-08T06:49:08;22.70;55.30
17437;DHT22;70275;52.198;5.422;2023-07-08T06:51:38;22.80;55.50
17437;DHT22;70275;52.198;5.422;2023-07-08T06:54:11;22.90;55.00
17437;DHT22;70275;52.198;5.422;2023-07-08T06:56:41;22.90;54.50
17437;DHT22;70275;52.198;5.422;2023-07-08T06:59:10;22.80;55.50
17437;DHT22;70275;52.198;5.422;2023-07-08T07:01:39;23.00;53.90
17437;DHT22;70275;52.198;5.422;2023-07-08T07:04:08;23.00;53.80
17437;DHT22;70275;52.198;5.422;2023-07-08T07:06:37;23.10;52.90
17437;DHT22;70275;52.198;5.422;2023-07-08T07:09:06;23.40;52.90
17437;DHT22;70275;52.198;5.422;2023-07-08T07:11:37;23.40;53.20
17437;DHT22;70275;52.198;5.422;2023-07-08T07:14:07;23.50;53.50
17437;DHT22;70275;52.198;5.422;2023-07-08T07:16:36;23.70;53.30
17437;DHT22;70275;52.198;5.422;2023-07-08T07:19:04;23.80;52.30
17437;DHT22;70275;52.198;5.422;2023-07-08T07:21:33;23.80;52.10
17437;DHT22;70275;52.198;5.422;2023-07-08T07:24:03;23.80;52.10
17437;DHT22;70275;52.198;5.422;2023-07-08T07:26:32;23.80;52.70
17437;DHT22;70275;52.198;5.422;2023-07-08T07:29:05;24.00;52.40
17437;DHT22;70275;52.198;5.422;2023-07-08T07:31:34;24.00;52.50
17437;DHT22;70275;52.198;5.422;2023-07-08T07:34:05;24.10;51.60
17437;DHT22;70275;52.198;5.422;2023-07-08T07:36:34;24.30;52.10
17437;DHT22;70275;52.198;5.422;2023-07-08T07:39:03;24.30;50.80
17437;DHT22;70275;52.198;5.422;2023-07-08T07:41:32;24.50;50.90
17437;DHT22;70275;52.198;5.422;2023-07-08T07:44:04;24.60;51.50
17437;DHT22;70275;52.198;5.422;2023-07-08T07:46:33;24.70;50.80
17437;DHT22;70275;52.198;5.422;2023-07-08T07:49:02;24.40;51.20
17437;DHT22;70275;52.198;5.422;2023-07-08T07:51:31;24.50;51.70
17437;DHT22;70275;52.198;5.422;2023-07-08T07:54:00;24.50;51.10
17437;DHT22;70275;52.198;5.422;2023-07-08T07:56:29;24.70;50.50
17437;DHT22;70275;52.198;5.422;2023-07-08T07:58:58;24.80;51.50
17437;DHT22;70275;52.198;5.422;2023-07-08T08:01:30;25.00;51.50
17437;DHT22;70275;52.198;5.422;2023-07-08T08:03:59;25.20;50.80
17437;DHT22;70275;52.198;5.422;2023-07-08T08:06:28;25.40;51.00
17437;DHT22;70275;52.198;5.422;2023-07-08T08:08:57;25.60;49.00
17437;DHT22;70275;52.198;5.422;2023-07-08T08:11:26;25.70;48.10
17437;DHT22;70275;52.198;5.422;2023-07-08T08:13:56;25.80;48.50
17437;DHT22;70275;52.198;5.422;2023-07-08T08:16:25;25.90;47.20
17437;DHT22;70275;52.198;5.422;2023-07-08T08:18:57;25.90;48.10
17437;DHT22;70275;52.198;5.422;2023-07-08T08:21:26;26.10;49.00
17437;DHT22;70275;52.198;5.422;2023-07-08T08:23:55;26.30;47.60
17437;DHT22;70275;52.198;5.422;2023-07-08T08:26:25;26.30;46.90
17437;DHT22;70275;52.198;5.422;2023-07-08T08:28:55;26.20;46.10
17437;DHT22;70275;52.198;5.422;2023-07-08T08:31:25;26.30;46.60
17437;DHT22;70275;52.198;5.422;2023-07-08T08:33:54;26.30;46.10
17437;DHT22;70275;52.198;5.422;2023-07-08T08:36:25;26.50;45.90
17437;DHT22;70275;52.198;5.422;2023-07-08T08:38:54;26.60;46.10
17437;DHT22;70275;52.198;5.422;2023-07-08T08:41:30;26.60;45.10
17437;DHT22;70275;52.198;5.422;2023-07-08T08:44:02;26.60;45.80
17437;DHT22;70275;52.198;5.422;2023-07-08T08:46:38;26.70;47.10
17437;DHT22;70275;52.198;5.422;2023-07-08T08:49:23;27.00;46.10
17437;DHT22;70275;52.198;5.422;2023-07-08T08:51:56;27.00;47.10
17437;DHT22;70275;52.198;5.422;2023-07-08T08:54:27;27.40;45.80
17437;DHT22;70275;52.198;5.422;2023-07-08T08:57:02;27.30;45.20
17437;DHT22;70275;52.198;5.422;2023-07-08T08:59:44;27.00;44.40
17437;DHT22;70275;52.198;5.422;2023-07-08T09:02:30;26.80;43.80
17437;DHT22;70275;52.198;5.422;2023-07-08T09:05:10;27.10;44.40
17437;DHT22;70275;52.198;5.422;2023-07-08T09:08:00;27.30;43.90
17437;DHT22;70275;52.198;5.422;2023-07-08T09:10:42;27.40;43.80
17437;DHT22;70275;52.198;5.422;2023-07-08T09:13:21;27.50;44.30
17437;DHT22;70275;52.198;5.422;2023-07-08T09:16:05;27.50;44.20
17437;DHT22;70275;52.198;5.422;2023-07-08T09:18:43;27.50;44.30
17437;DHT22;70275;52.198;5.422;2023-07-08T09:21:25;27.80;44.10
17437;DHT22;70275;52.198;5.422;2023-07-08T09:24:02;27.80;43.60
17437;DHT22;70275;52.198;5.422;2023-07-08T09:26:39;27.80;44.50
17437;DHT22;70275;52.198;5.422;2023-07-08T09:29:10;28.10;44.70
17437;DHT22;70275;52.198;5.422;2023-07-08T09:31:40;28.10;44.30
17437;DHT22;70275;52.198;5.422;2023-07-08T09:34:12;28.30;43.90
17437;DHT22;70275;52.198;5.422;2023-07-08T09:36:47;28.40;43.40
17437;DHT22;70275;52.198;5.422;2023-07-08T09:39:19;28.50;43.80
17437;DHT22;70275;52.198;5.422;2023-07-08T09:41:49;28.80;42.70
17437;DHT22;70275;52.198;5.422;2023-07-08T09:44:22;28.90;42.80
17437;DHT22;70275;52.198;5.422;2023-07-08T09:46:55;28.90;42.80
17437;DHT22;70275;52.198;5.422;2023-07-08T09:49:28;28.80;43.20
17437;DHT22;70275;52.198;5.422;2023-07-08T09:52:05;29.00;43.50
17437;DHT22;70275;52.198;5.422;2023-07-08T09:54:34;29.20;42.60
17437;DHT22;70275;52.198;5.422;2023-07-08T09:57:05;28.90;42.60
17437;DHT22;70275;52.198;5.422;2023-07-08T09:59:45;29.00;42.90
17437;DHT22;70275;52.198;5.422;2023-07-08T10:02:31;29.10;43.10
17437;DHT22;70275;52.198;5.422;2023-07-08T10:05:11;29.40;44.30
17437;DHT22;70275;52.198;5.422;2023-07-08T10:07:47;29.40;43.40
17437;DHT22;70275;52.198;5.422;2023-07-08T10:10:19;29.50;43.10
17437;DHT22;70275;52.198;5.422;2023-07-08T10:12:59;29.60;43.30
17437;DHT22;70275;52.198;5.422;2023-07-08T10:15:33;29.70;41.80
17437;DHT22;70275;52.198;5.422;2023-07-08T10:18:13;30.00;42.40
17437;DHT22;70275;52.198;5.422;2023-07-08T10:20:49;30.30;41.50
17437;DHT22;70275;52.198;5.422;2023-07-08T10:23:37;30.40;41.70
17437;DHT22;70275;52.198;5.422;2023-07-08T10:26:20;30.10;41.90
17437;DHT22;70275;52.198;5.422;2023-07-08T10:29:07;30.10;41.70
17437;DHT22;70275;52.198;5.422;2023-07-08T10:31:51;30.20;40.60
17437;DHT22;70275;52.198;5.422;2023-07-08T10:34:36;30.60;40.30
17437;DHT22;70275;52.198;5.422;2023-07-08T10:37:22;30.50;41.30
17437;DHT22;70275;52.198;5.422;2023-07-08T10:40:12;30.70;40.60
17437;DHT22;70275;52.198;5.422;2023-07-08T10:43:00;30.50;40.70
17437;DHT22;70275;52.198;5.422;2023-07-08T10:45:59;30.80;40.40
17437;DHT22;70275;52.198;5.422;2023-07-08T10:49:00;30.50;42.10
17437;DHT22;70275;52.198;5.422;2023-07-08T10:51:44;30.80;39.90
17437;DHT22;70275;52.198;5.422;2023-07-08T10:54:48;30.90;40.50
17437;DHT22;70275;52.198;5.422;2023-07-08T10:57:47;31.30;39.00
17437;DHT22;70275;52.198;5.422;2023-07-08T11:00:37;31.30;39.00
17437;DHT22;70275;52.198;5.422;2023-07-08T11:06:41;31.70;37.80
17437;DHT22;70275;52.198;5.422;2023-07-08T11:09:21;32.10;38.00
17437;DHT22;70275;52.198;5.422;2023-07-08T11:12:01;32.20;37.10
17437;DHT22;70275;52.198;5.422;2023-07-08T11:14:45;32.50;37.60
17437;DHT22;70275;52.198;5.422;2023-07-08T11:17:22;33.00;36.50
17437;DHT22;70275;52.198;5.422;2023-07-08T11:19:59;33.20;36.20
17437;DHT22;70275;52.198;5.422;2023-07-08T11:22:34;34.10;35.20
17437;DHT22;70275;52.198;5.422;2023-07-08T11:25:17;35.20;33.00
17437;DHT22;70275;52.198;5.422;2023-07-08T11:27:50;35.80;32.00
17437;DHT22;70275;52.198;5.422;2023-07-08T11:30:28;35.30;32.20
17437;DHT22;70275;52.198;5.422;2023-07-08T11:33:04;35.90;32.80
17437;DHT22;70275;52.198;5.422;2023-07-08T11:35:41;36.20;31.20
17437;DHT22;70275;52.198;5.422;2023-07-08T11:38:15;35.80;31.70
17437;DHT22;70275;52.198;5.422;2023-07-08T11:40:54;35.50;32.30
17437;DHT22;70275;52.198;5.422;2023-07-08T11:43:27;35.50;31.70
17437;DHT22;70275;52.198;5.422;2023-07-08T11:46:06;36.30;31.20
17437;DHT22;70275;52.198;5.422;2023-07-08T11:48:40;36.10;31.40
17437;DHT22;70275;52.198;5.422;2023-07-08T11:51:18;36.90;30.60
17437;DHT22;70275;52.198;5.422;2023-07-08T11:53:49;36.90;29.40
17437;DHT22;70275;52.198;5.422;2023-07-08T11:56:27;36.10;31.10
17437;DHT22;70275;52.198;5.422;2023-07-08T11:59:11;37.20;29.60
17437;DHT22;70275;52.198;5.422;2023-07-08T12:01:53;35.60;30.80
17437;DHT22;70275;52.198;5.422;2023-07-08T12:04:30;37.10;30.60
17437;DHT22;70275;52.198;5.422;2023-07-08T12:07:12;37.30;28.80
17437;DHT22;70275;52.198;5.422;2023-07-08T12:09:47;37.90;28.60
17437;DHT22;70275;52.198;5.422;2023-07-08T12:12:30;36.90;30.10
17437;DHT22;70275;52.198;5.422;2023-07-08T12:15:09;35.50;31.00
17437;DHT22;70275;52.198;5.422;2023-07-08T12:17:45;37.30;28.10
17437;DHT22;70275;52.198;5.422;2023-07-08T12:20:23;36.60;30.10
17437;DHT22;70275;52.198;5.422;2023-07-08T12:22:55;36.50;30.60
17437;DHT22;70275;52.198;5.422;2023-07-08T12:25:29;37.10;30.60
17437;DHT22;70275;52.198;5.422;2023-07-08T12:28:01;36.30;30.10
17437;DHT22;70275;52.198;5.422;2023-07-08T12:30:32;36.60;29.30
17437;DHT22;70275;52.198;5.422;2023-07-08T12:33:10;37.20;29.10
17437;DHT22;70275;52.198;5.422;2023-07-08T12:35:43;38.40;27.90
17437;DHT22;70275;52.198;5.422;2023-07-08T12:38:19;37.10;29.30
17437;DHT22;70275;52.198;5.422;2023-07-08T12:40:56;37.40;27.20
17437;DHT22;70275;52.198;5.422;2023-07-08T12:43:26;36.80;28.80
17437;DHT22;70275;52.198;5.422;2023-07-08T12:45:55;36.10;29.50
17437;DHT22;70275;52.198;5.422;2023-07-08T12:48:31;36.90;28.20
17437;DHT22;70275;52.198;5.422;2023-07-08T12:51:00;36.20;29.40
17437;DHT22;70275;52.198;5.422;2023-07-08T12:53:31;35.70;30.30
17437;DHT22;70275;52.198;5.422;2023-07-08T12:56:00;35.90;29.00
17437;DHT22;70275;52.198;5.422;2023-07-08T12:58:32;37.30;25.90
17437;DHT22;70275;52.198;5.422;2023-07-08T13:01:05;37.40;28.10
17437;DHT22;70275;52.198;5.422;2023-07-08T13:03:42;36.80;27.40
17437;DHT22;70275;52.198;5.422;2023-07-08T13:06:17;35.30;29.90
17437;DHT22;70275;52.198;5.422;2023-07-08T13:08:49;36.10;29.60
17437;DHT22;70275;52.198;5.422;2023-07-08T13:11:22;36.50;28.90
17437;DHT22;70275;52.198;5.422;2023-07-08T13:13:55;37.70;26.30
17437;DHT22;70275;52.198;5.422;2023-07-08T13:16:31;36.60;27.20
17437;DHT22;70275;52.198;5.422;2023-07-08T13:19:05;36.10;27.60
17437;DHT22;70275;52.198;5.422;2023-07-08T13:21:34;36.20;27.50
17437;DHT22;70275;52.198;5.422;2023-07-08T13:24:08;37.00;27.60
17437;DHT22;70275;52.198;5.422;2023-07-08T13:26:38;37.00;27.20
17437;DHT22;70275;52.198;5.422;2023-07-08T13:29:13;37.20;25.80
17437;DHT22;70275;52.198;5.422;2023-07-08T13:31:47;36.70;26.40
17437;DHT22;70275;52.198;5.422;2023-07-08T13:34:22;36.00;25.70
17437;DHT22;70275;52.198;5.422;2023-07-08T13:36:54;36.40;26.60
17437;DHT22;70275;52.198;5.422;2023-07-08T13:39:26;36.40;27.00
17437;DHT22;70275;52.198;5.422;2023-07-08T13:42:03;37.50;26.00
17437;DHT22;70275;52.198;5.422;2023-07-08T13:44:41;37.20;26.90
17437;DHT22;70275;52.198;5.422;2023-07-08T13:47:21;36.60;25.60
17437;DHT22;70275;52.198;5.422;2023-07-08T13:50:00;36.30;24.90
17437;DHT22;70275;52.198;5.422;2023-07-08T13:52:36;36.60;25.00
17437;DHT22;70275;52.198;5.422;2023-07-08T13:55:17;37.00;25.60
17437;DHT22;70275;52.198;5.422;2023-07-08T13:57:56;37.40;25.70
17437;DHT22;70275;52.198;5.422;2023-07-08T14:00:29;37.30;25.40
17437;DHT22;70275;52.198;5.422;2023-07-08T14:02:59;38.00;26.30
17437;DHT22;70275;52.198;5.422;2023-07-08T14:05:31;37.10;25.70
17437;DHT22;70275;52.198;5.422;2023-07-08T14:08:00;36.50;26.30
17437;DHT22;70275;52.198;5.422;2023-07-08T14:10:29;37.50;25.70
17437;DHT22;70275;52.198;5.422;2023-07-08T14:12:58;36.60;25.70
17437;DHT22;70275;52.198;5.422;2023-07-08T14:15:26;36.40;25.90
17437;DHT22;70275;52.198;5.422;2023-07-08T14:17:55;37.40;24.90
17437;DHT22;70275;52.198;5.422;2023-07-08T14:20:26;37.70;25.80
17437;DHT22;70275;52.198;5.422;2023-07-08T14:22:58;37.30;26.40
17437;DHT22;70275;52.198;5.422;2023-07-08T14:25:27;37.80;25.90
17437;DHT22;70275;52.198;5.422;2023-07-08T14:27:56;37.10;27.20
17437;DHT22;70275;52.198;5.422;2023-07-08T14:30:25;37.10;26.60
17437;DHT22;70275;52.198;5.422;2023-07-08T14:32:55;37.60;25.90
17437;DHT22;70275;52.198;5.422;2023-07-08T14:35:26;37.20;27.10
17437;DHT22;70275;52.198;5.422;2023-07-08T14:37:59;37.10;27.30
17437;DHT22;70275;52.198;5.422;2023-07-08T14:40:33;38.00;26.40
17437;DHT22;70275;52.198;5.422;2023-07-08T14:43:06;37.60;26.30
17437;DHT22;70275;52.198;5.422;2023-07-08T14:45:44;38.50;25.80
17437;DHT22;70275;52.198;5.422;2023-07-08T14:48:16;37.90;26.50
17437;DHT22;70275;52.198;5.422;2023-07-08T14:50:46;38.10;26.10
17437;DHT22;70275;52.198;5.422;2023-07-08T14:53:18;37.20;26.20
17437;DHT22;70275;52.198;5.422;2023-07-08T14:55:49;37.30;26.20
17437;DHT22;70275;52.198;5.422;2023-07-08T14:58:22;37.20;25.70
17437;DHT22;70275;52.198;5.422;2023-07-08T15:00:55;37.10;25.90
17437;DHT22;70275;52.198;5.422;2023-07-08T15:03:26;36.50;26.10
17437;DHT22;70275;52.198;5.422;2023-07-08T15:05:55;36.70;26.90
17437;DHT22;70275;52.198;5.422;2023-07-08T15:08:27;37.20;25.70
17437;DHT22;70275;52.198;5.422;2023-07-08T15:10:56;36.50;26.80
17437;DHT22;70275;52.198;5.422;2023-07-08T15:13:28;36.20;27.50
17437;DHT22;70275;52.198;5.422;2023-07-08T15:15:58;36.40;27.30
17437;DHT22;70275;52.198;5.422;2023-07-08T15:18:27;35.80;27.80
17437;DHT22;70275;52.198;5.422;2023-07-08T15:20:57;35.70;29.30
17437;DHT22;70275;52.198;5.422;2023-07-08T15:23:28;36.70;28.00
17437;DHT22;70275;52.198;5.422;2023-07-08T15:25:57;37.10;26.90
17437;DHT22;70275;52.198;5.422;2023-07-08T15:28:39;36.60;28.00
17437;DHT22;70275;52.198;5.422;2023-07-08T15:31:14;36.50;28.40
17437;DHT22;70275;52.198;5.422;2023-07-08T15:33:45;37.60;28.00
17437;DHT22;70275;52.198;5.422;2023-07-08T15:36:15;38.50;26.70
17437;DHT22;70275;52.198;5.422;2023-07-08T15:38:46;39.10;26.20
17437;DHT22;70275;52.198;5.422;2023-07-08T15:41:19;38.10;26.20
17437;DHT22;70275;52.198;5.422;2023-07-08T15:43:53;39.20;25.20
17437;DHT22;70275;52.198;5.422;2023-07-08T15:46:32;38.10;27.40
17437;DHT22;70275;52.198;5.422;2023-07-08T15:49:12;38.40;27.40
17437;DHT22;70275;52.198;5.422;2023-07-08T15:51:43;37.40;28.10
17437;DHT22;70275;52.198;5.422;2023-07-08T15:54:17;36.90;28.90
17437;DHT22;70275;52.198;5.422;2023-07-08T15:56:47;36.40;29.50
17437;DHT22;70275;52.198;5.422;2023-07-08T15:59:19;35.70;30.10
17437;DHT22;70275;52.198;5.422;2023-07-08T16:01:52;35.50;30.40
17437;DHT22;70275;52.198;5.422;2023-07-08T16:04:23;35.00;30.70
17437;DHT22;70275;52.198;5.422;2023-07-08T16:06:54;35.20;30.50
17437;DHT22;70275;52.198;5.422;2023-07-08T16:09:26;34.60;31.70